Terminal Aerodrome Forecast
Issued by NWS

Current Version | Previous Version | Graphics & Text | Print | Product List | Glossary On
Versions: 1 2 3 4 5 6 7 8 9 10 11 12 13 14 15 16 17 18 19 20 21 22 23 24 25 26 27 28 29 30 31 32 33 34
000
FTUS41 KRNK 091120
TAFLWB
TAF
KLWB 091120Z 0912/1012 00000KT P6SM -SN OVC040
      TEMPO 0913/0917 3SM -SN OVC025
     FM091800 25004KT P6SM OVC100
     FM092000 26006KT P6SM SCT200
     FM092300 27006KT P6SM BKN090
     FM100300 28009KT P6SM BKN040
     FM100700 18009G20KT P6SM -SHSN OVC025=

USA.gov is the U.S. government's official web portal to all federal, state and local government web resources and services.